Airport details for: LQSA (Bosnia-Herzegovina)

Metar

LQSA 280600Z VRB01KT 9999 SCT060 11/09 Q1023 NOSIG

General details

ICAO: LQSA
IATA: SJJ
Name (city): Sarajevo
Major:
Country: Bosnia-Herzegovina
vACC: vACC Bosnia & Herzegovina
Description:

Sarajevo International Airport is the main international airport in Bosnia and Herzegovina, located 3.3 NM southwest of the city center. Since 1996, the airport has welcomed a thriving commercial flight business which includes B&H Airlines, Austrian Airlines, Lufthansa, Jat Airways, Croatia Airlines, Turkish Airlines, Germanwings and others. In 2011 Sarajevo International Airport had 599,996 passengers. In 2005 the European branch of the Airports Council International awarded Sarajevo the award of Best Airport Under 1 Million Passengers.

Scenery links:
FS9 scenery: Download
FSX/P3D scenery: Download
XP scenery: Download
Elevation: 1708 ft.
Transition altitude: 9500 ft.
MSA: 8500 ft.
Latitude: 43.824472
Longitude: 18.331767
LQSA Charts
LQSA Notams
LQSA Online stations

Runways

Number Course Length Elevation Lat Lon ILS ILS freq ILS FAC GP
12 115° 8530ft / 2600 m 1643ft 43.829542000000004 18.318231 110.7 115° 3.2°
30 295° 8530ft / 2600 m 1690ft 43.821272 18.340303 - - 3.0°